Hovedside
METAR-TAF:

METAR-TAF

Lufthavner :

Røst, Norge

Røst lufthavn

breddegrad: 67-31N, lengdegrad: 012-06E, høyde over havet: 4 m

Gjeldene værobservasjon

Denne rapporten ble laget for 8 timer og 8 minutter siden, klokken 12:50 UTC
Vind 37 kt fra Vest-nordvest med vindkast opp mot 47 kt
Temperatur 5°C
Luftfuktighet 65%
Trykk 1006 hPa
Sikt 10 km eller mer
Få skyer i en høyde av 2400 ft
Spredte skyer i en høyde av 3200 ft
regnbyger i nærheten

METAR: ENRS 261250Z 30037G47KT 9999 VCSH FEW024 SCT032 05/M01 Q1006

Tid: 22:58 (20:58 UTC)


TAF: fraværende

Værobservasjoner og værvarsel for over 4000 flyplasser (METAR- og TAF-rapporter).

Tilgjengelige stasjoner er representert av de røde og gule prikkene på kartet.

Hold musepekeren over prikken for å se navnet på stasjonen.

Klikk så for å se værobservasjoner og -varsler.

For å forandre kartet kan du klikke på den grønne knappen med svart kryss for å zoome inn, på den grønne knappen med strek for å zoome ut, eller på de grønne pilene for å se tilstøtende kart.


METAR-TAF: